sensor_id;sensor_type;location;lat;lon;timestamp;P1;durP1;ratioP1;P2;durP2;ratioP2
13327;SDS011;6733;51.044;3.746;2023-05-07T00:00:47;8.60;;;4.50;;
13327;SDS011;6733;51.044;3.746;2023-05-07T00:03:13;9.03;;;4.43;;
13327;SDS011;6733;51.044;3.746;2023-05-07T00:05:39;7.23;;;4.40;;
13327;SDS011;6733;51.044;3.746;2023-05-07T00:08:06;9.70;;;4.30;;
13327;SDS011;6733;51.044;3.746;2023-05-07T00:10:33;11.83;;;4.93;;
13327;SDS011;6733;51.044;3.746;2023-05-07T00:12:59;8.03;;;4.40;;
13327;SDS011;6733;51.044;3.746;2023-05-07T00:15:25;10.03;;;4.80;;
13327;SDS011;6733;51.044;3.746;2023-05-07T00:17:52;11.23;;;4.57;;
13327;SDS011;6733;51.044;3.746;2023-05-07T00:20:19;11.27;;;4.83;;
13327;SDS011;6733;51.044;3.746;2023-05-07T00:22:45;10.53;;;5.23;;
13327;SDS011;6733;51.044;3.746;2023-05-07T00:25:11;10.20;;;4.57;;
13327;SDS011;6733;51.044;3.746;2023-05-07T00:27:37;9.80;;;4.70;;
13327;SDS011;6733;51.044;3.746;2023-05-07T00:30:04;6.53;;;4.03;;
13327;SDS011;6733;51.044;3.746;2023-05-07T00:32:30;8.33;;;4.90;;
13327;SDS011;6733;51.044;3.746;2023-05-07T00:34:57;8.97;;;4.93;;
13327;SDS011;6733;51.044;3.746;2023-05-07T00:37:23;8.80;;;4.90;;
13327;SDS011;6733;51.044;3.746;2023-05-07T00:39:49;7.67;;;5.07;;
13327;SDS011;6733;51.044;3.746;2023-05-07T00:42:15;6.07;;;4.83;;
13327;SDS011;6733;51.044;3.746;2023-05-07T00:44:41;9.30;;;5.00;;
13327;SDS011;6733;51.044;3.746;2023-05-07T00:47:08;8.73;;;4.80;;
13327;SDS011;6733;51.044;3.746;2023-05-07T00:49:38;11.20;;;5.17;;
13327;SDS011;6733;51.044;3.746;2023-05-07T00:52:07;11.47;;;4.90;;
13327;SDS011;6733;51.044;3.746;2023-05-07T00:54:34;12.40;;;5.43;;
13327;SDS011;6733;51.044;3.746;2023-05-07T00:57:02;10.77;;;5.20;;
13327;SDS011;6733;51.044;3.746;2023-05-07T00:59:32;9.90;;;5.10;;
13327;SDS011;6733;51.044;3.746;2023-05-07T01:01:59;8.33;;;4.73;;
13327;SDS011;6733;51.044;3.746;2023-05-07T01:04:25;10.80;;;5.00;;
13327;SDS011;6733;51.044;3.746;2023-05-07T01:06:52;9.40;;;5.00;;
13327;SDS011;6733;51.044;3.746;2023-05-07T01:09:21;8.83;;;5.60;;
13327;SDS011;6733;51.044;3.746;2023-05-07T01:11:49;10.43;;;5.10;;
13327;SDS011;6733;51.044;3.746;2023-05-07T01:14:17;9.27;;;5.27;;
13327;SDS011;6733;51.044;3.746;2023-05-07T01:16:44;8.63;;;5.17;;
13327;SDS011;6733;51.044;3.746;2023-05-07T01:19:10;13.20;;;6.00;;
13327;SDS011;6733;51.044;3.746;2023-05-07T01:21:39;9.80;;;5.67;;
13327;SDS011;6733;51.044;3.746;2023-05-07T01:24:14;10.97;;;5.43;;
13327;SDS011;6733;51.044;3.746;2023-05-07T01:26:40;12.83;;;5.67;;
13327;SDS011;6733;51.044;3.746;2023-05-07T01:29:07;10.60;;;5.63;;
13327;SDS011;6733;51.044;3.746;2023-05-07T01:31:33;8.87;;;6.20;;
13327;SDS011;6733;51.044;3.746;2023-05-07T01:34:01;11.33;;;5.67;;
13327;SDS011;6733;51.044;3.746;2023-05-07T01:36:30;7.60;;;5.03;;
13327;SDS011;6733;51.044;3.746;2023-05-07T01:38:58;9.17;;;5.60;;
13327;SDS011;6733;51.044;3.746;2023-05-07T01:41:25;8.13;;;5.40;;
13327;SDS011;6733;51.044;3.746;2023-05-07T01:43:52;12.37;;;5.80;;
13327;SDS011;6733;51.044;3.746;2023-05-07T01:46:19;11.70;;;5.90;;
13327;SDS011;6733;51.044;3.746;2023-05-07T01:48:45;9.47;;;5.57;;
13327;SDS011;6733;51.044;3.746;2023-05-07T01:51:12;10.40;;;5.90;;
13327;SDS011;6733;51.044;3.746;2023-05-07T01:53:38;11.37;;;5.77;;
13327;SDS011;6733;51.044;3.746;2023-05-07T01:56:06;9.23;;;5.50;;
13327;SDS011;6733;51.044;3.746;2023-05-07T01:58:33;10.50;;;6.03;;
13327;SDS011;6733;51.044;3.746;2023-05-07T02:00:59;9.83;;;5.97;;
13327;SDS011;6733;51.044;3.746;2023-05-07T02:03:25;8.40;;;5.57;;
13327;SDS011;6733;51.044;3.746;2023-05-07T02:05:51;9.50;;;6.07;;
13327;SDS011;6733;51.044;3.746;2023-05-07T02:08:18;10.27;;;5.73;;
13327;SDS011;6733;51.044;3.746;2023-05-07T02:10:44;10.30;;;6.07;;
13327;SDS011;6733;51.044;3.746;2023-05-07T02:13:10;7.83;;;5.20;;
13327;SDS011;6733;51.044;3.746;2023-05-07T02:15:36;11.93;;;6.30;;
13327;SDS011;6733;51.044;3.746;2023-05-07T02:18:04;8.70;;;6.03;;
13327;SDS011;6733;51.044;3.746;2023-05-07T02:20:34;12.00;;;6.53;;
13327;SDS011;6733;51.044;3.746;2023-05-07T02:23:01;10.13;;;5.70;;
13327;SDS011;6733;51.044;3.746;2023-05-07T02:25:27;10.27;;;6.20;;
13327;SDS011;6733;51.044;3.746;2023-05-07T02:27:54;7.43;;;5.40;;
13327;SDS011;6733;51.044;3.746;2023-05-07T02:30:20;8.67;;;5.93;;
13327;SDS011;6733;51.044;3.746;2023-05-07T02:32:47;11.07;;;6.00;;
13327;SDS011;6733;51.044;3.746;2023-05-07T02:35:38;10.70;;;6.57;;
13327;SDS011;6733;51.044;3.746;2023-05-07T02:38:29;18.23;;;6.17;;
13327;SDS011;6733;51.044;3.746;2023-05-07T02:41:20;12.10;;;6.37;;
13327;SDS011;6733;51.044;3.746;2023-05-07T02:44:11;10.27;;;5.70;;
13327;SDS011;6733;51.044;3.746;2023-05-07T02:47:02;10.07;;;6.37;;
13327;SDS011;6733;51.044;3.746;2023-05-07T02:49:53;8.53;;;5.57;;
13327;SDS011;6733;51.044;3.746;2023-05-07T02:52:47;10.60;;;6.17;;
13327;SDS011;6733;51.044;3.746;2023-05-07T02:55:13;10.50;;;5.70;;
13327;SDS011;6733;51.044;3.746;2023-05-07T02:57:40;8.67;;;5.70;;
13327;SDS011;6733;51.044;3.746;2023-05-07T03:00:15;10.17;;;5.77;;
13327;SDS011;6733;51.044;3.746;2023-05-07T03:02:43;10.20;;;5.77;;
13327;SDS011;6733;51.044;3.746;2023-05-07T03:05:12;12.57;;;6.20;;
13327;SDS011;6733;51.044;3.746;2023-05-07T03:07:45;10.73;;;5.80;;
13327;SDS011;6733;51.044;3.746;2023-05-07T03:10:13;7.83;;;5.53;;
13327;SDS011;6733;51.044;3.746;2023-05-07T03:12:39;10.67;;;5.80;;
13327;SDS011;6733;51.044;3.746;2023-05-07T03:15:05;8.30;;;5.17;;
13327;SDS011;6733;51.044;3.746;2023-05-07T03:17:32;11.13;;;5.73;;
13327;SDS011;6733;51.044;3.746;2023-05-07T03:19:58;8.20;;;5.70;;
13327;SDS011;6733;51.044;3.746;2023-05-07T03:22:24;10.40;;;6.97;;
13327;SDS011;6733;51.044;3.746;2023-05-07T03:24:50;12.10;;;5.17;;
13327;SDS011;6733;51.044;3.746;2023-05-07T03:27:17;13.97;;;6.57;;
13327;SDS011;6733;51.044;3.746;2023-05-07T03:29:43;8.77;;;5.73;;
13327;SDS011;6733;51.044;3.746;2023-05-07T03:32:09;11.33;;;6.07;;
13327;SDS011;6733;51.044;3.746;2023-05-07T03:34:35;8.57;;;5.40;;
13327;SDS011;6733;51.044;3.746;2023-05-07T03:37:01;8.17;;;6.00;;
13327;SDS011;6733;51.044;3.746;2023-05-07T03:39:27;7.33;;;5.17;;
13327;SDS011;6733;51.044;3.746;2023-05-07T03:41:53;10.50;;;6.03;;
13327;SDS011;6733;51.044;3.746;2023-05-07T03:44:20;10.33;;;5.40;;
13327;SDS011;6733;51.044;3.746;2023-05-07T03:46:46;8.50;;;5.90;;
13327;SDS011;6733;51.044;3.746;2023-05-07T03:49:12;12.53;;;6.37;;
13327;SDS011;6733;51.044;3.746;2023-05-07T03:51:38;8.33;;;6.10;;
13327;SDS011;6733;51.044;3.746;2023-05-07T03:54:04;11.70;;;5.90;;
13327;SDS011;6733;51.044;3.746;2023-05-07T03:56:31;10.40;;;5.97;;
13327;SDS011;6733;51.044;3.746;2023-05-07T03:58:57;11.27;;;6.07;;
13327;SDS011;6733;51.044;3.746;2023-05-07T04:01:23;9.03;;;6.03;;
13327;SDS011;6733;51.044;3.746;2023-05-07T04:03:49;12.00;;;6.40;;
13327;SDS011;6733;51.044;3.746;2023-05-07T04:06:16;9.83;;;5.83;;
13327;SDS011;6733;51.044;3.746;2023-05-07T04:08:45;10.70;;;6.00;;
13327;SDS011;6733;51.044;3.746;2023-05-07T04:11:11;12.30;;;6.83;;
13327;SDS011;6733;51.044;3.746;2023-05-07T04:13:37;8.13;;;5.73;;
13327;SDS011;6733;51.044;3.746;2023-05-07T04:16:04;9.30;;;6.23;;
13327;SDS011;6733;51.044;3.746;2023-05-07T04:18:30;10.70;;;6.53;;
13327;SDS011;6733;51.044;3.746;2023-05-07T04:20:57;13.87;;;6.47;;
13327;SDS011;6733;51.044;3.746;2023-05-07T04:23:23;12.67;;;7.10;;
13327;SDS011;6733;51.044;3.746;2023-05-07T04:25:49;10.70;;;6.73;;
13327;SDS011;6733;51.044;3.746;2023-05-07T04:28:16;14.87;;;6.23;;
13327;SDS011;6733;51.044;3.746;2023-05-07T04:30:43;9.47;;;6.50;;
13327;SDS011;6733;51.044;3.746;2023-05-07T04:33:10;10.23;;;6.73;;
13327;SDS011;6733;51.044;3.746;2023-05-07T04:35:37;10.33;;;6.17;;
13327;SDS011;6733;51.044;3.746;2023-05-07T04:38:03;10.30;;;6.37;;
13327;SDS011;6733;51.044;3.746;2023-05-07T04:40:29;13.00;;;6.97;;
13327;SDS011;6733;51.044;3.746;2023-05-07T04:42:56;16.50;;;7.33;;
13327;SDS011;6733;51.044;3.746;2023-05-07T04:45:22;12.50;;;6.40;;
13327;SDS011;6733;51.044;3.746;2023-05-07T04:47:48;12.27;;;6.87;;
13327;SDS011;6733;51.044;3.746;2023-05-07T04:50:14;15.73;;;7.57;;
13327;SDS011;6733;51.044;3.746;2023-05-07T04:52:40;11.87;;;6.10;;
13327;SDS011;6733;51.044;3.746;2023-05-07T04:55:07;10.10;;;6.53;;
13327;SDS011;6733;51.044;3.746;2023-05-07T04:57:33;11.37;;;6.80;;
13327;SDS011;6733;51.044;3.746;2023-05-07T04:59:59;9.57;;;6.40;;
13327;SDS011;6733;51.044;3.746;2023-05-07T05:02:26;9.83;;;6.47;;
13327;SDS011;6733;51.044;3.746;2023-05-07T05:04:52;9.23;;;6.70;;
13327;SDS011;6733;51.044;3.746;2023-05-07T05:07:18;10.07;;;6.70;;
13327;SDS011;6733;51.044;3.746;2023-05-07T05:09:44;12.97;;;6.53;;
13327;SDS011;6733;51.044;3.746;2023-05-07T05:12:10;11.80;;;6.80;;
13327;SDS011;6733;51.044;3.746;2023-05-07T05:14:36;11.10;;;6.83;;
13327;SDS011;6733;51.044;3.746;2023-05-07T05:17:02;11.03;;;6.70;;
13327;SDS011;6733;51.044;3.746;2023-05-07T05:19:29;8.47;;;6.40;;
13327;SDS011;6733;51.044;3.746;2023-05-07T05:21:55;9.43;;;6.90;;
13327;SDS011;6733;51.044;3.746;2023-05-07T05:24:21;11.07;;;7.30;;
13327;SDS011;6733;51.044;3.746;2023-05-07T05:26:47;11.47;;;6.27;;
13327;SDS011;6733;51.044;3.746;2023-05-07T05:29:13;12.50;;;7.67;;
13327;SDS011;6733;51.044;3.746;2023-05-07T05:31:40;12.03;;;7.27;;
13327;SDS011;6733;51.044;3.746;2023-05-07T05:34:07;9.53;;;6.27;;
13327;SDS011;6733;51.044;3.746;2023-05-07T05:36:33;11.73;;;6.00;;
13327;SDS011;6733;51.044;3.746;2023-05-07T05:38:59;7.07;;;5.20;;
13327;SDS011;6733;51.044;3.746;2023-05-07T05:41:25;10.23;;;6.30;;
13327;SDS011;6733;51.044;3.746;2023-05-07T05:43:51;11.03;;;5.37;;
13327;SDS011;6733;51.044;3.746;2023-05-07T05:46:17;8.27;;;5.70;;
13327;SDS011;6733;51.044;3.746;2023-05-07T05:48:44;11.27;;;5.50;;
13327;SDS011;6733;51.044;3.746;2023-05-07T05:51:10;9.73;;;5.60;;
13327;SDS011;6733;51.044;3.746;2023-05-07T05:53:36;13.53;;;5.70;;
13327;SDS011;6733;51.044;3.746;2023-05-07T05:56:02;9.47;;;5.80;;
13327;SDS011;6733;51.044;3.746;2023-05-07T05:58:28;8.27;;;5.73;;
13327;SDS011;6733;51.044;3.746;2023-05-07T06:00:55;9.57;;;5.70;;
13327;SDS011;6733;51.044;3.746;2023-05-07T06:03:22;11.30;;;6.43;;
13327;SDS011;6733;51.044;3.746;2023-05-07T06:05:48;10.20;;;5.93;;
13327;SDS011;6733;51.044;3.746;2023-05-07T06:08:14;9.20;;;5.73;;
13327;SDS011;6733;51.044;3.746;2023-05-07T06:10:41;9.20;;;6.37;;
13327;SDS011;6733;51.044;3.746;2023-05-07T06:13:07;8.40;;;5.57;;
13327;SDS011;6733;51.044;3.746;2023-05-07T06:15:33;9.60;;;6.13;;
13327;SDS011;6733;51.044;3.746;2023-05-07T06:17:59;8.07;;;6.10;;
13327;SDS011;6733;51.044;3.746;2023-05-07T06:20:25;10.03;;;6.37;;
13327;SDS011;6733;51.044;3.746;2023-05-07T06:22:52;8.73;;;5.70;;
13327;SDS011;6733;51.044;3.746;2023-05-07T06:25:18;9.07;;;5.37;;
13327;SDS011;6733;51.044;3.746;2023-05-07T06:27:44;10.60;;;5.53;;
13327;SDS011;6733;51.044;3.746;2023-05-07T06:30:10;7.80;;;5.47;;
13327;SDS011;6733;51.044;3.746;2023-05-07T06:32:37;8.97;;;5.43;;
13327;SDS011;6733;51.044;3.746;2023-05-07T06:35:05;8.07;;;5.80;;
13327;SDS011;6733;51.044;3.746;2023-05-07T06:37:32;6.63;;;5.10;;
13327;SDS011;6733;51.044;3.746;2023-05-07T06:39:58;7.17;;;5.17;;
13327;SDS011;6733;51.044;3.746;2023-05-07T06:42:24;11.03;;;5.03;;
13327;SDS011;6733;51.044;3.746;2023-05-07T06:44:50;8.53;;;5.60;;
13327;SDS011;6733;51.044;3.746;2023-05-07T06:47:18;6.30;;;5.10;;
13327;SDS011;6733;51.044;3.746;2023-05-07T06:49:44;7.03;;;5.20;;
13327;SDS011;6733;51.044;3.746;2023-05-07T06:52:10;8.43;;;5.30;;
13327;SDS011;6733;51.044;3.746;2023-05-07T06:54:36;8.43;;;4.87;;
13327;SDS011;6733;51.044;3.746;2023-05-07T06:57:02;6.73;;;4.80;;
13327;SDS011;6733;51.044;3.746;2023-05-07T06:59:28;9.20;;;5.30;;
13327;SDS011;6733;51.044;3.746;2023-05-07T07:01:55;9.60;;;5.27;;
13327;SDS011;6733;51.044;3.746;2023-05-07T07:04:21;8.90;;;5.80;;
13327;SDS011;6733;51.044;3.746;2023-05-07T07:06:49;7.73;;;5.53;;
13327;SDS011;6733;51.044;3.746;2023-05-07T07:09:17;8.17;;;5.37;;
13327;SDS011;6733;51.044;3.746;2023-05-07T07:11:43;6.73;;;5.40;;
13327;SDS011;6733;51.044;3.746;2023-05-07T07:14:09;8.93;;;5.90;;
13327;SDS011;6733;51.044;3.746;2023-05-07T07:16:35;7.97;;;5.87;;
13327;SDS011;6733;51.044;3.746;2023-05-07T07:19:01;10.17;;;6.23;;
13327;SDS011;6733;51.044;3.746;2023-05-07T07:21:28;10.10;;;6.63;;
13327;SDS011;6733;51.044;3.746;2023-05-07T07:23:54;11.23;;;7.37;;
13327;SDS011;6733;51.044;3.746;2023-05-07T07:26:20;12.00;;;8.27;;
13327;SDS011;6733;51.044;3.746;2023-05-07T07:28:47;12.30;;;7.53;;
13327;SDS011;6733;51.044;3.746;2023-05-07T07:31:13;13.40;;;9.80;;
13327;SDS011;6733;51.044;3.746;2023-05-07T07:33:39;13.30;;;8.47;;
13327;SDS011;6733;51.044;3.746;2023-05-07T07:36:06;13.20;;;6.90;;
13327;SDS011;6733;51.044;3.746;2023-05-07T07:38:33;9.53;;;6.30;;
13327;SDS011;6733;51.044;3.746;2023-05-07T07:41:00;10.97;;;6.57;;
13327;SDS011;6733;51.044;3.746;2023-05-07T07:43:26;12.53;;;11.27;;
13327;SDS011;6733;51.044;3.746;2023-05-07T07:45:53;8.43;;;6.50;;
13327;SDS011;6733;51.044;3.746;2023-05-07T07:48:19;8.30;;;5.90;;
13327;SDS011;6733;51.044;3.746;2023-05-07T07:50:48;10.50;;;6.07;;
13327;SDS011;6733;51.044;3.746;2023-05-07T07:53:15;12.47;;;6.07;;
13327;SDS011;6733;51.044;3.746;2023-05-07T07:55:42;14.30;;;6.73;;
13327;SDS011;6733;51.044;3.746;2023-05-07T07:58:08;8.67;;;6.17;;
13327;SDS011;6733;51.044;3.746;2023-05-07T08:00:34;10.13;;;5.70;;
13327;SDS011;6733;51.044;3.746;2023-05-07T08:03:00;10.73;;;6.17;;
13327;SDS011;6733;51.044;3.746;2023-05-07T08:05:28;9.63;;;5.30;;
13327;SDS011;6733;51.044;3.746;2023-05-07T08:07:55;7.70;;;5.50;;
13327;SDS011;6733;51.044;3.746;2023-05-07T08:10:21;9.80;;;6.13;;
13327;SDS011;6733;51.044;3.746;2023-05-07T08:12:50;9.10;;;5.67;;
13327;SDS011;6733;51.044;3.746;2023-05-07T08:15:17;12.93;;;6.10;;
13327;SDS011;6733;51.044;3.746;2023-05-07T08:17:43;10.90;;;5.90;;
13327;SDS011;6733;51.044;3.746;2023-05-07T08:20:09;9.60;;;6.00;;
13327;SDS011;6733;51.044;3.746;2023-05-07T08:22:36;10.90;;;6.10;;
13327;SDS011;6733;51.044;3.746;2023-05-07T08:25:02;12.50;;;6.13;;
13327;SDS011;6733;51.044;3.746;2023-05-07T08:27:28;9.90;;;6.03;;
13327;SDS011;6733;51.044;3.746;2023-05-07T08:29:55;10.33;;;5.70;;
13327;SDS011;6733;51.044;3.746;2023-05-07T08:32:21;9.17;;;6.20;;
13327;SDS011;6733;51.044;3.746;2023-05-07T08:34:47;10.80;;;5.50;;
13327;SDS011;6733;51.044;3.746;2023-05-07T08:37:14;7.47;;;6.00;;
13327;SDS011;6733;51.044;3.746;2023-05-07T08:39:40;10.47;;;6.43;;
13327;SDS011;6733;51.044;3.746;2023-05-07T08:42:06;8.87;;;6.27;;
13327;SDS011;6733;51.044;3.746;2023-05-07T08:44:35;12.13;;;6.43;;
13327;SDS011;6733;51.044;3.746;2023-05-07T08:47:03;12.93;;;6.33;;
13327;SDS011;6733;51.044;3.746;2023-05-07T08:49:33;8.50;;;5.80;;
13327;SDS011;6733;51.044;3.746;2023-05-07T08:52:00;8.37;;;6.77;;
13327;SDS011;6733;51.044;3.746;2023-05-07T08:54:27;9.47;;;6.23;;
13327;SDS011;6733;51.044;3.746;2023-05-07T08:56:54;8.03;;;5.87;;
13327;SDS011;6733;51.044;3.746;2023-05-07T08:59:21;10.47;;;5.97;;
13327;SDS011;6733;51.044;3.746;2023-05-07T09:01:47;8.87;;;6.20;;
13327;SDS011;6733;51.044;3.746;2023-05-07T09:04:13;10.33;;;6.40;;
13327;SDS011;6733;51.044;3.746;2023-05-07T09:06:39;9.60;;;6.17;;
13327;SDS011;6733;51.044;3.746;2023-05-07T09:09:07;10.13;;;6.13;;
13327;SDS011;6733;51.044;3.746;2023-05-07T09:11:33;9.83;;;5.63;;
13327;SDS011;6733;51.044;3.746;2023-05-07T09:13:59;8.13;;;5.27;;
13327;SDS011;6733;51.044;3.746;2023-05-07T09:16:30;9.80;;;5.90;;
13327;SDS011;6733;51.044;3.746;2023-05-07T09:18:57;8.13;;;5.50;;
13327;SDS011;6733;51.044;3.746;2023-05-07T09:21:24;8.57;;;5.57;;
13327;SDS011;6733;51.044;3.746;2023-05-07T09:23:51;7.90;;;5.23;;
13327;SDS011;6733;51.044;3.746;2023-05-07T09:26:23;10.47;;;5.77;;
13327;SDS011;6733;51.044;3.746;2023-05-07T09:28:50;8.40;;;5.20;;
13327;SDS011;6733;51.044;3.746;2023-05-07T09:31:17;7.77;;;4.83;;
13327;SDS011;6733;51.044;3.746;2023-05-07T09:33:43;7.63;;;4.83;;
13327;SDS011;6733;51.044;3.746;2023-05-07T09:36:10;11.23;;;5.43;;
13327;SDS011;6733;51.044;3.746;2023-05-07T09:38:36;8.57;;;5.63;;
13327;SDS011;6733;51.044;3.746;2023-05-07T09:41:10;8.93;;;6.33;;
13327;SDS011;6733;51.044;3.746;2023-05-07T09:43:38;13.70;;;7.10;;
13327;SDS011;6733;51.044;3.746;2023-05-07T09:46:09;8.47;;;5.50;;
13327;SDS011;6733;51.044;3.746;2023-05-07T09:48:38;6.60;;;5.03;;
13327;SDS011;6733;51.044;3.746;2023-05-07T09:51:08;7.67;;;4.83;;
13327;SDS011;6733;51.044;3.746;2023-05-07T09:53:41;8.03;;;4.97;;
13327;SDS011;6733;51.044;3.746;2023-05-07T09:56:08;8.23;;;5.60;;
13327;SDS011;6733;51.044;3.746;2023-05-07T09:58:36;10.97;;;4.87;;
13327;SDS011;6733;51.044;3.746;2023-05-07T10:01:04;8.07;;;5.03;;
13327;SDS011;6733;51.044;3.746;2023-05-07T10:03:32;7.77;;;6.00;;
13327;SDS011;6733;51.044;3.746;2023-05-07T10:06:00;8.47;;;5.60;;
13327;SDS011;6733;51.044;3.746;2023-05-07T10:08:29;8.67;;;5.20;;
13327;SDS011;6733;51.044;3.746;2023-05-07T10:10:56;6.60;;;5.13;;
13327;SDS011;6733;51.044;3.746;2023-05-07T10:13:22;8.70;;;4.40;;
13327;SDS011;6733;51.044;3.746;2023-05-07T10:15:49;5.13;;;3.20;;
13327;SDS011;6733;51.044;3.746;2023-05-07T10:18:16;6.60;;;3.63;;
13327;SDS011;6733;51.044;3.746;2023-05-07T10:20:47;8.27;;;3.70;;
13327;SDS011;6733;51.044;3.746;2023-05-07T10:23:15;8.53;;;4.10;;
13327;SDS011;6733;51.044;3.746;2023-05-07T10:25:47;9.13;;;4.03;;
13327;SDS011;6733;51.044;3.746;2023-05-07T10:28:14;8.83;;;3.50;;
13327;SDS011;6733;51.044;3.746;2023-05-07T10:33:29;4.87;;;3.60;;
13327;SDS011;6733;51.044;3.746;2023-05-07T10:35:58;5.67;;;3.17;;
13327;SDS011;6733;51.044;3.746;2023-05-07T10:38:27;5.17;;;3.10;;
13327;SDS011;6733;51.044;3.746;2023-05-07T10:40:54;4.43;;;3.27;;
13327;SDS011;6733;51.044;3.746;2023-05-07T10:43:20;4.47;;;3.30;;
13327;SDS011;6733;51.044;3.746;2023-05-07T10:51:31;4.37;;;3.33;;
13327;SDS011;6733;51.044;3.746;2023-05-07T10:56:39;4.67;;;2.83;;
13327;SDS011;6733;51.044;3.746;2023-05-07T11:04:15;6.17;;;3.67;;
13327;SDS011;6733;51.044;3.746;2023-05-07T11:06:56;5.43;;;3.90;;
13327;SDS011;6733;51.044;3.746;2023-05-07T11:15:04;3.30;;;2.83;;
13327;SDS011;6733;51.044;3.746;2023-05-07T11:17:54;5.97;;;3.80;;
13327;SDS011;6733;51.044;3.746;2023-05-07T11:20:44;7.17;;;4.07;;
13327;SDS011;6733;51.044;3.746;2023-05-07T11:26:03;3.27;;;2.90;;
13327;SDS011;6733;51.044;3.746;2023-05-07T11:28:32;4.83;;;3.33;;
13327;SDS011;6733;51.044;3.746;2023-05-07T11:31:09;5.03;;;3.37;;
13327;SDS011;6733;51.044;3.746;2023-05-07T11:33:37;3.43;;;3.13;;
13327;SDS011;6733;51.044;3.746;2023-05-07T11:36:04;4.87;;;3.13;;
13327;SDS011;6733;51.044;3.746;2023-05-07T11:38:33;4.43;;;3.27;;
13327;SDS011;6733;51.044;3.746;2023-05-07T11:41:01;4.53;;;2.97;;
13327;SDS011;6733;51.044;3.746;2023-05-07T11:43:33;4.63;;;3.73;;
13327;SDS011;6733;51.044;3.746;2023-05-07T11:46:05;4.13;;;3.20;;
13327;SDS011;6733;51.044;3.746;2023-05-07T11:48:33;4.63;;;2.93;;
13327;SDS011;6733;51.044;3.746;2023-05-07T11:51:03;4.33;;;2.87;;
13327;SDS011;6733;51.044;3.746;2023-05-07T11:53:38;4.43;;;2.80;;
13327;SDS011;6733;51.044;3.746;2023-05-07T11:56:06;4.50;;;2.93;;
13327;SDS011;6733;51.044;3.746;2023-05-07T11:58:38;3.77;;;2.83;;
13327;SDS011;6733;51.044;3.746;2023-05-07T12:01:06;4.27;;;3.10;;
13327;SDS011;6733;51.044;3.746;2023-05-07T12:03:35;5.13;;;3.17;;
13327;SDS011;6733;51.044;3.746;2023-05-07T12:06:08;3.00;;;2.70;;
13327;SDS011;6733;51.044;3.746;2023-05-07T12:08:39;4.23;;;3.23;;
13327;SDS011;6733;51.044;3.746;2023-05-07T12:11:09;3.97;;;3.03;;
13327;SDS011;6733;51.044;3.746;2023-05-07T12:13:39;4.37;;;3.27;;
13327;SDS011;6733;51.044;3.746;2023-05-07T12:16:07;4.70;;;3.60;;
13327;SDS011;6733;51.044;3.746;2023-05-07T12:18:36;5.87;;;3.20;;
13327;SDS011;6733;51.044;3.746;2023-05-07T12:21:04;2.87;;;2.63;;
13327;SDS011;6733;51.044;3.746;2023-05-07T12:23:31;4.00;;;3.00;;
13327;SDS011;6733;51.044;3.746;2023-05-07T12:25:59;5.70;;;3.30;;
13327;SDS011;6733;51.044;3.746;2023-05-07T12:28:25;5.27;;;3.40;;
13327;SDS011;6733;51.044;3.746;2023-05-07T12:30:52;6.57;;;3.50;;
13327;SDS011;6733;51.044;3.746;2023-05-07T12:33:19;6.40;;;3.30;;
13327;SDS011;6733;51.044;3.746;2023-05-07T12:35:50;5.90;;;3.40;;
13327;SDS011;6733;51.044;3.746;2023-05-07T12:38:18;4.60;;;3.57;;
13327;SDS011;6733;51.044;3.746;2023-05-07T12:40:45;3.80;;;3.07;;
13327;SDS011;6733;51.044;3.746;2023-05-07T12:43:26;3.97;;;3.47;;
13327;SDS011;6733;51.044;3.746;2023-05-07T12:45:54;5.30;;;3.27;;
13327;SDS011;6733;51.044;3.746;2023-05-07T12:48:22;4.77;;;3.13;;
13327;SDS011;6733;51.044;3.746;2023-05-07T12:50:49;3.87;;;2.80;;
13327;SDS011;6733;51.044;3.746;2023-05-07T12:53:16;3.60;;;2.53;;
13327;SDS011;6733;51.044;3.746;2023-05-07T12:55:46;4.07;;;3.07;;
13327;SDS011;6733;51.044;3.746;2023-05-07T12:58:15;4.30;;;2.97;;
13327;SDS011;6733;51.044;3.746;2023-05-07T13:00:47;4.37;;;3.30;;
13327;SDS011;6733;51.044;3.746;2023-05-07T13:03:21;4.03;;;2.53;;
13327;SDS011;6733;51.044;3.746;2023-05-07T13:05:48;4.23;;;2.80;;
13327;SDS011;6733;51.044;3.746;2023-05-07T13:08:23;4.27;;;2.70;;
13327;SDS011;6733;51.044;3.746;2023-05-07T13:10:58;3.30;;;3.00;;
13327;SDS011;6733;51.044;3.746;2023-05-07T13:13:29;4.43;;;3.00;;
13327;SDS011;6733;51.044;3.746;2023-05-07T13:16:03;3.50;;;2.63;;
13327;SDS011;6733;51.044;3.746;2023-05-07T13:18:30;3.67;;;2.80;;
13327;SDS011;6733;51.044;3.746;2023-05-07T13:20:58;6.53;;;2.67;;
13327;SDS011;6733;51.044;3.746;2023-05-07T13:23:25;4.17;;;3.00;;
13327;SDS011;6733;51.044;3.746;2023-05-07T13:25:52;4.40;;;3.13;;
13327;SDS011;6733;51.044;3.746;2023-05-07T13:28:25;3.73;;;3.07;;
13327;SDS011;6733;51.044;3.746;2023-05-07T13:30:52;3.53;;;2.87;;
13327;SDS011;6733;51.044;3.746;2023-05-07T13:33:20;3.83;;;3.43;;
13327;SDS011;6733;51.044;3.746;2023-05-07T13:35:46;4.17;;;2.93;;
13327;SDS011;6733;51.044;3.746;2023-05-07T13:38:12;3.77;;;3.40;;
13327;SDS011;6733;51.044;3.746;2023-05-07T13:40:38;5.73;;;3.40;;
13327;SDS011;6733;51.044;3.746;2023-05-07T13:43:05;3.43;;;2.93;;
13327;SDS011;6733;51.044;3.746;2023-05-07T13:45:31;4.93;;;2.80;;
13327;SDS011;6733;51.044;3.746;2023-05-07T13:47:57;4.57;;;2.87;;
13327;SDS011;6733;51.044;3.746;2023-05-07T13:50:24;3.83;;;3.23;;
13327;SDS011;6733;51.044;3.746;2023-05-07T13:52:52;3.30;;;3.00;;
13327;SDS011;6733;51.044;3.746;2023-05-07T13:55:23;5.17;;;2.83;;
13327;SDS011;6733;51.044;3.746;2023-05-07T13:57:56;4.10;;;3.20;;
13327;SDS011;6733;51.044;3.746;2023-05-07T14:00:24;3.60;;;3.30;;
13327;SDS011;6733;51.044;3.746;2023-05-07T14:02:52;4.00;;;3.20;;
13327;SDS011;6733;51.044;3.746;2023-05-07T14:05:18;3.37;;;2.90;;
13327;SDS011;6733;51.044;3.746;2023-05-07T14:07:44;3.90;;;3.50;;
13327;SDS011;6733;51.044;3.746;2023-05-07T14:10:11;5.00;;;3.37;;
13327;SDS011;6733;51.044;3.746;2023-05-07T14:12:38;4.10;;;3.30;;
13327;SDS011;6733;51.044;3.746;2023-05-07T14:15:05;4.40;;;3.50;;
13327;SDS011;6733;51.044;3.746;2023-05-07T14:17:31;4.00;;;3.60;;
13327;SDS011;6733;51.044;3.746;2023-05-07T14:19:57;5.50;;;3.57;;
13327;SDS011;6733;51.044;3.746;2023-05-07T14:22:24;3.60;;;3.30;;
13327;SDS011;6733;51.044;3.746;2023-05-07T14:24:50;3.80;;;3.40;;
13327;SDS011;6733;51.044;3.746;2023-05-07T14:27:16;5.53;;;4.10;;
13327;SDS011;6733;51.044;3.746;2023-05-07T14:29:43;5.50;;;4.43;;
13327;SDS011;6733;51.044;3.746;2023-05-07T14:32:11;5.80;;;4.63;;
13327;SDS011;6733;51.044;3.746;2023-05-07T14:34:37;6.20;;;4.90;;
13327;SDS011;6733;51.044;3.746;2023-05-07T14:37:03;6.40;;;5.80;;
13327;SDS011;6733;51.044;3.746;2023-05-07T14:39:29;5.40;;;4.90;;
13327;SDS011;6733;51.044;3.746;2023-05-07T14:41:56;5.70;;;5.20;;
13327;SDS011;6733;51.044;3.746;2023-05-07T14:44:23;7.00;;;5.63;;
13327;SDS011;6733;51.044;3.746;2023-05-07T14:46:49;5.80;;;5.00;;
13327;SDS011;6733;51.044;3.746;2023-05-07T14:49:16;7.73;;;5.73;;
13327;SDS011;6733;51.044;3.746;2023-05-07T14:51:43;7.90;;;5.83;;
13327;SDS011;6733;51.044;3.746;2023-05-07T14:54:11;5.93;;;5.43;;
13327;SDS011;6733;51.044;3.746;2023-05-07T14:56:37;5.93;;;4.90;;
13327;SDS011;6733;51.044;3.746;2023-05-07T14:59:04;6.77;;;5.40;;
13327;SDS011;6733;51.044;3.746;2023-05-07T15:01:30;5.03;;;4.53;;
13327;SDS011;6733;51.044;3.746;2023-05-07T15:03:56;4.63;;;3.60;;
13327;SDS011;6733;51.044;3.746;2023-05-07T15:06:22;3.83;;;3.40;;
13327;SDS011;6733;51.044;3.746;2023-05-07T15:08:49;3.93;;;3.03;;
13327;SDS011;6733;51.044;3.746;2023-05-07T15:11:15;4.27;;;3.10;;
13327;SDS011;6733;51.044;3.746;2023-05-07T15:13:42;3.60;;;3.27;;
13327;SDS011;6733;51.044;3.746;2023-05-07T15:16:08;4.83;;;4.20;;
13327;SDS011;6733;51.044;3.746;2023-05-07T15:18:34;5.10;;;4.00;;
13327;SDS011;6733;51.044;3.746;2023-05-07T15:21:00;4.87;;;4.30;;
13327;SDS011;6733;51.044;3.746;2023-05-07T15:23:27;5.20;;;4.20;;
13327;SDS011;6733;51.044;3.746;2023-05-07T15:25:53;5.43;;;4.20;;